sensor_id;sensor_type;location;lat;lon;timestamp;P1;durP1;ratioP1;P2;durP2;ratioP2
297;SDS011;133;49.626;9.680;2023-06-05T00:01:27;3.83;;;2.97;;
297;SDS011;133;49.626;9.680;2023-06-05T00:03:53;4.13;;;2.53;;
297;SDS011;133;49.626;9.680;2023-06-05T00:06:19;3.60;;;2.90;;
297;SDS011;133;49.626;9.680;2023-06-05T00:08:45;3.07;;;2.93;;
297;SDS011;133;49.626;9.680;2023-06-05T00:11:10;3.03;;;2.63;;
297;SDS011;133;49.626;9.680;2023-06-05T00:13:36;4.63;;;3.07;;
297;SDS011;133;49.626;9.680;2023-06-05T00:16:01;3.03;;;2.87;;
297;SDS011;133;49.626;9.680;2023-06-05T00:18:28;3.07;;;2.80;;
297;SDS011;133;49.626;9.680;2023-06-05T00:20:55;3.10;;;2.93;;
297;SDS011;133;49.626;9.680;2023-06-05T00:23:20;3.93;;;2.93;;
297;SDS011;133;49.626;9.680;2023-06-05T00:25:46;2.97;;;2.80;;
297;SDS011;133;49.626;9.680;2023-06-05T00:28:11;3.07;;;2.87;;
297;SDS011;133;49.626;9.680;2023-06-05T00:30:37;3.00;;;2.80;;
297;SDS011;133;49.626;9.680;2023-06-05T00:33:03;3.57;;;2.73;;
297;SDS011;133;49.626;9.680;2023-06-05T00:35:29;3.00;;;2.80;;
297;SDS011;133;49.626;9.680;2023-06-05T00:37:55;4.80;;;3.00;;
297;SDS011;133;49.626;9.680;2023-06-05T00:40:21;4.47;;;3.00;;
297;SDS011;133;49.626;9.680;2023-06-05T00:42:46;4.20;;;2.87;;
297;SDS011;133;49.626;9.680;2023-06-05T00:45:12;3.03;;;2.83;;
297;SDS011;133;49.626;9.680;2023-06-05T00:47:38;4.67;;;3.43;;
297;SDS011;133;49.626;9.680;2023-06-05T00:50:04;4.00;;;2.70;;
297;SDS011;133;49.626;9.680;2023-06-05T00:52:32;3.23;;;3.03;;
297;SDS011;133;49.626;9.680;2023-06-05T00:54:58;2.77;;;2.60;;
297;SDS011;133;49.626;9.680;2023-06-05T00:57:26;3.40;;;3.10;;
297;SDS011;133;49.626;9.680;2023-06-05T00:59:53;3.20;;;3.00;;
297;SDS011;133;49.626;9.680;2023-06-05T01:02:19;3.00;;;2.80;;
297;SDS011;133;49.626;9.680;2023-06-05T01:04:45;3.20;;;2.80;;
297;SDS011;133;49.626;9.680;2023-06-05T01:07:11;3.10;;;2.90;;
297;SDS011;133;49.626;9.680;2023-06-05T01:09:39;2.77;;;2.57;;
297;SDS011;133;49.626;9.680;2023-06-05T01:12:11;3.27;;;3.07;;
297;SDS011;133;49.626;9.680;2023-06-05T01:14:49;4.03;;;2.83;;
297;SDS011;133;49.626;9.680;2023-06-05T01:17:17;3.27;;;2.90;;
297;SDS011;133;49.626;9.680;2023-06-05T01:19:45;6.77;;;2.90;;
297;SDS011;133;49.626;9.680;2023-06-05T01:22:13;3.13;;;3.00;;
297;SDS011;133;49.626;9.680;2023-06-05T01:24:39;3.00;;;2.80;;
297;SDS011;133;49.626;9.680;2023-06-05T01:27:12;3.10;;;2.90;;
297;SDS011;133;49.626;9.680;2023-06-05T01:32:25;3.20;;;3.00;;
297;SDS011;133;49.626;9.680;2023-06-05T01:35:06;3.27;;;3.07;;
297;SDS011;133;49.626;9.680;2023-06-05T01:37:34;3.03;;;2.83;;
297;SDS011;133;49.626;9.680;2023-06-05T01:40:07;4.43;;;3.30;;
297;SDS011;133;49.626;9.680;2023-06-05T01:42:36;2.80;;;2.60;;
297;SDS011;133;49.626;9.680;2023-06-05T01:45:03;3.63;;;3.00;;
297;SDS011;133;49.626;9.680;2023-06-05T01:47:31;3.10;;;2.70;;
297;SDS011;133;49.626;9.680;2023-06-05T01:49:57;3.00;;;2.80;;
297;SDS011;133;49.626;9.680;2023-06-05T01:52:22;2.90;;;2.70;;
297;SDS011;133;49.626;9.680;2023-06-05T01:54:48;3.57;;;2.60;;
297;SDS011;133;49.626;9.680;2023-06-05T01:57:15;2.90;;;2.70;;
297;SDS011;133;49.626;9.680;2023-06-05T01:59:40;2.70;;;2.50;;
297;SDS011;133;49.626;9.680;2023-06-05T02:02:08;4.07;;;3.07;;
297;SDS011;133;49.626;9.680;2023-06-05T02:04:34;2.70;;;2.50;;
297;SDS011;133;49.626;9.680;2023-06-05T02:06:59;3.50;;;2.80;;
297;SDS011;133;49.626;9.680;2023-06-05T02:09:28;2.90;;;2.70;;
297;SDS011;133;49.626;9.680;2023-06-05T02:11:57;4.53;;;3.20;;
297;SDS011;133;49.626;9.680;2023-06-05T02:14:28;5.33;;;2.90;;
297;SDS011;133;49.626;9.680;2023-06-05T02:16:55;3.27;;;3.00;;
297;SDS011;133;49.626;9.680;2023-06-05T02:19:21;3.77;;;3.00;;
297;SDS011;133;49.626;9.680;2023-06-05T02:21:47;4.23;;;3.10;;
297;SDS011;133;49.626;9.680;2023-06-05T02:24:12;2.83;;;2.63;;
297;SDS011;133;49.626;9.680;2023-06-05T02:26:38;5.40;;;3.70;;
297;SDS011;133;49.626;9.680;2023-06-05T02:29:03;3.40;;;3.20;;
297;SDS011;133;49.626;9.680;2023-06-05T02:31:30;6.27;;;2.93;;
297;SDS011;133;49.626;9.680;2023-06-05T02:33:56;5.33;;;3.20;;
297;SDS011;133;49.626;9.680;2023-06-05T02:36:22;4.23;;;3.07;;
297;SDS011;133;49.626;9.680;2023-06-05T02:38:49;2.93;;;2.73;;
297;SDS011;133;49.626;9.680;2023-06-05T02:41:19;3.50;;;3.30;;
297;SDS011;133;49.626;9.680;2023-06-05T02:43:46;3.20;;;3.00;;
297;SDS011;133;49.626;9.680;2023-06-05T02:46:12;3.40;;;3.00;;
297;SDS011;133;49.626;9.680;2023-06-05T02:48:37;3.07;;;2.87;;
297;SDS011;133;49.626;9.680;2023-06-05T02:51:03;3.53;;;3.00;;
297;SDS011;133;49.626;9.680;2023-06-05T02:53:29;3.30;;;2.90;;
297;SDS011;133;49.626;9.680;2023-06-05T02:55:55;2.90;;;2.77;;
297;SDS011;133;49.626;9.680;2023-06-05T02:58:20;2.97;;;2.80;;
297;SDS011;133;49.626;9.680;2023-06-05T03:00:46;4.50;;;3.20;;
297;SDS011;133;49.626;9.680;2023-06-05T03:03:15;3.20;;;3.00;;
297;SDS011;133;49.626;9.680;2023-06-05T03:05:42;3.93;;;2.67;;
297;SDS011;133;49.626;9.680;2023-06-05T03:08:09;3.33;;;2.93;;
297;SDS011;133;49.626;9.680;2023-06-05T03:10:35;3.00;;;2.80;;
297;SDS011;133;49.626;9.680;2023-06-05T03:13:01;2.70;;;2.50;;
297;SDS011;133;49.626;9.680;2023-06-05T03:15:27;3.10;;;2.90;;
297;SDS011;133;49.626;9.680;2023-06-05T03:17:53;3.10;;;2.90;;
297;SDS011;133;49.626;9.680;2023-06-05T03:20:18;3.20;;;2.90;;
297;SDS011;133;49.626;9.680;2023-06-05T03:22:44;3.23;;;3.00;;
297;SDS011;133;49.626;9.680;2023-06-05T03:25:10;2.90;;;2.73;;
297;SDS011;133;49.626;9.680;2023-06-05T03:27:36;3.20;;;3.00;;
297;SDS011;133;49.626;9.680;2023-06-05T03:30:02;3.53;;;2.90;;
297;SDS011;133;49.626;9.680;2023-06-05T03:32:28;6.30;;;3.23;;
297;SDS011;133;49.626;9.680;2023-06-05T03:34:54;4.27;;;2.93;;
297;SDS011;133;49.626;9.680;2023-06-05T03:37:20;4.77;;;3.20;;
297;SDS011;133;49.626;9.680;2023-06-05T03:39:46;3.10;;;2.90;;
297;SDS011;133;49.626;9.680;2023-06-05T03:42:12;4.43;;;3.00;;
297;SDS011;133;49.626;9.680;2023-06-05T03:44:37;3.63;;;2.80;;
297;SDS011;133;49.626;9.680;2023-06-05T03:47:03;3.83;;;3.27;;
297;SDS011;133;49.626;9.680;2023-06-05T03:49:30;3.13;;;2.93;;
297;SDS011;133;49.626;9.680;2023-06-05T03:51:56;3.10;;;2.80;;
297;SDS011;133;49.626;9.680;2023-06-05T03:54:26;3.07;;;2.90;;
297;SDS011;133;49.626;9.680;2023-06-05T03:56:53;3.13;;;2.93;;
297;SDS011;133;49.626;9.680;2023-06-05T03:59:20;6.00;;;3.20;;
297;SDS011;133;49.626;9.680;2023-06-05T04:01:47;3.07;;;2.70;;
297;SDS011;133;49.626;9.680;2023-06-05T04:04:13;3.17;;;2.70;;
297;SDS011;133;49.626;9.680;2023-06-05T04:06:39;3.33;;;3.13;;
297;SDS011;133;49.626;9.680;2023-06-05T04:09:08;2.80;;;2.50;;
297;SDS011;133;49.626;9.680;2023-06-05T04:11:40;3.07;;;2.87;;
297;SDS011;133;49.626;9.680;2023-06-05T04:14:07;2.97;;;2.73;;
297;SDS011;133;49.626;9.680;2023-06-05T04:16:34;3.40;;;2.70;;
297;SDS011;133;49.626;9.680;2023-06-05T04:19:03;4.73;;;3.43;;
297;SDS011;133;49.626;9.680;2023-06-05T04:21:31;3.17;;;2.87;;
297;SDS011;133;49.626;9.680;2023-06-05T04:23:58;2.70;;;2.50;;
297;SDS011;133;49.626;9.680;2023-06-05T04:26:24;4.70;;;3.27;;
297;SDS011;133;49.626;9.680;2023-06-05T04:28:51;3.00;;;2.80;;
297;SDS011;133;49.626;9.680;2023-06-05T04:31:17;3.07;;;2.87;;
297;SDS011;133;49.626;9.680;2023-06-05T04:33:42;4.27;;;3.13;;
297;SDS011;133;49.626;9.680;2023-06-05T04:36:08;3.57;;;3.37;;
297;SDS011;133;49.626;9.680;2023-06-05T04:38:34;5.27;;;3.43;;
297;SDS011;133;49.626;9.680;2023-06-05T04:40:59;4.43;;;3.10;;
297;SDS011;133;49.626;9.680;2023-06-05T04:43:25;3.00;;;2.80;;
297;SDS011;133;49.626;9.680;2023-06-05T04:45:51;3.00;;;2.80;;
297;SDS011;133;49.626;9.680;2023-06-05T04:48:16;5.10;;;3.67;;
297;SDS011;133;49.626;9.680;2023-06-05T04:50:42;3.20;;;3.00;;
297;SDS011;133;49.626;9.680;2023-06-05T04:53:08;4.37;;;3.40;;
297;SDS011;133;49.626;9.680;2023-06-05T04:55:33;3.97;;;3.40;;
297;SDS011;133;49.626;9.680;2023-06-05T04:57:59;5.30;;;3.00;;
297;SDS011;133;49.626;9.680;2023-06-05T05:00:25;5.73;;;3.13;;
297;SDS011;133;49.626;9.680;2023-06-05T05:02:52;4.03;;;2.73;;
297;SDS011;133;49.626;9.680;2023-06-05T05:05:19;3.40;;;3.20;;
297;SDS011;133;49.626;9.680;2023-06-05T05:07:45;3.20;;;3.00;;
297;SDS011;133;49.626;9.680;2023-06-05T05:10:11;3.77;;;3.23;;
297;SDS011;133;49.626;9.680;2023-06-05T05:12:37;5.50;;;2.70;;
297;SDS011;133;49.626;9.680;2023-06-05T05:15:03;4.73;;;2.93;;
297;SDS011;133;49.626;9.680;2023-06-05T05:17:30;5.57;;;2.97;;
297;SDS011;133;49.626;9.680;2023-06-05T05:19:56;3.43;;;2.90;;
297;SDS011;133;49.626;9.680;2023-06-05T05:22:22;3.40;;;3.20;;
297;SDS011;133;49.626;9.680;2023-06-05T05:24:48;3.20;;;3.00;;
297;SDS011;133;49.626;9.680;2023-06-05T05:27:13;3.20;;;2.90;;
297;SDS011;133;49.626;9.680;2023-06-05T05:29:39;3.10;;;2.90;;
297;SDS011;133;49.626;9.680;2023-06-05T05:32:05;4.23;;;3.23;;
297;SDS011;133;49.626;9.680;2023-06-05T05:34:31;2.70;;;2.50;;
297;SDS011;133;49.626;9.680;2023-06-05T05:36:58;3.70;;;3.13;;
297;SDS011;133;49.626;9.680;2023-06-05T05:39:24;3.17;;;2.93;;
297;SDS011;133;49.626;9.680;2023-06-05T05:41:50;2.93;;;2.73;;
297;SDS011;133;49.626;9.680;2023-06-05T05:44:16;3.50;;;3.30;;
297;SDS011;133;49.626;9.680;2023-06-05T05:46:41;3.00;;;2.80;;
297;SDS011;133;49.626;9.680;2023-06-05T05:49:07;3.00;;;2.80;;
297;SDS011;133;49.626;9.680;2023-06-05T05:51:33;2.87;;;2.70;;
297;SDS011;133;49.626;9.680;2023-06-05T05:53:59;3.27;;;3.13;;
297;SDS011;133;49.626;9.680;2023-06-05T05:56:25;4.00;;;2.47;;
297;SDS011;133;49.626;9.680;2023-06-05T05:58:50;3.07;;;2.70;;
297;SDS011;133;49.626;9.680;2023-06-05T06:01:16;3.10;;;2.90;;
297;SDS011;133;49.626;9.680;2023-06-05T06:03:41;3.77;;;2.73;;
297;SDS011;133;49.626;9.680;2023-06-05T06:06:08;3.27;;;2.87;;
297;SDS011;133;49.626;9.680;2023-06-05T06:08:34;8.97;;;3.40;;
297;SDS011;133;49.626;9.680;2023-06-05T06:11:02;5.90;;;3.10;;
297;SDS011;133;49.626;9.680;2023-06-05T06:13:31;3.13;;;2.70;;
297;SDS011;133;49.626;9.680;2023-06-05T06:15:58;3.23;;;3.03;;
297;SDS011;133;49.626;9.680;2023-06-05T06:18:24;4.63;;;3.23;;
297;SDS011;133;49.626;9.680;2023-06-05T06:20:50;4.80;;;2.83;;
297;SDS011;133;49.626;9.680;2023-06-05T06:23:16;6.50;;;3.00;;
297;SDS011;133;49.626;9.680;2023-06-05T06:25:41;3.00;;;2.80;;
297;SDS011;133;49.626;9.680;2023-06-05T06:28:07;4.47;;;3.20;;
297;SDS011;133;49.626;9.680;2023-06-05T06:30:33;3.17;;;2.67;;
297;SDS011;133;49.626;9.680;2023-06-05T06:32:58;7.67;;;3.37;;
297;SDS011;133;49.626;9.680;2023-06-05T06:35:24;3.20;;;3.03;;
297;SDS011;133;49.626;9.680;2023-06-05T06:37:52;8.60;;;3.30;;
297;SDS011;133;49.626;9.680;2023-06-05T06:40:19;5.30;;;2.80;;
297;SDS011;133;49.626;9.680;2023-06-05T06:42:45;4.70;;;3.30;;
297;SDS011;133;49.626;9.680;2023-06-05T06:45:11;3.87;;;2.80;;
297;SDS011;133;49.626;9.680;2023-06-05T06:47:36;3.73;;;3.00;;
297;SDS011;133;49.626;9.680;2023-06-05T06:50:02;4.97;;;3.10;;
297;SDS011;133;49.626;9.680;2023-06-05T06:52:28;5.07;;;3.03;;
297;SDS011;133;49.626;9.680;2023-06-05T06:54:53;4.07;;;2.90;;
297;SDS011;133;49.626;9.680;2023-06-05T06:57:19;3.10;;;2.90;;
297;SDS011;133;49.626;9.680;2023-06-05T06:59:45;3.00;;;2.73;;
297;SDS011;133;49.626;9.680;2023-06-05T07:04:38;5.13;;;3.23;;
297;SDS011;133;49.626;9.680;2023-06-05T07:07:07;5.93;;;3.17;;
297;SDS011;133;49.626;9.680;2023-06-05T07:09:33;4.77;;;3.33;;
297;SDS011;133;49.626;9.680;2023-06-05T07:11:59;4.37;;;3.13;;
297;SDS011;133;49.626;9.680;2023-06-05T07:14:29;3.80;;;2.97;;
297;SDS011;133;49.626;9.680;2023-06-05T07:16:56;3.20;;;2.63;;
297;SDS011;133;49.626;9.680;2023-06-05T07:19:23;4.20;;;3.03;;
297;SDS011;133;49.626;9.680;2023-06-05T07:21:49;5.80;;;2.90;;
297;SDS011;133;49.626;9.680;2023-06-05T07:24:15;2.70;;;2.50;;
297;SDS011;133;49.626;9.680;2023-06-05T07:26:43;5.10;;;3.20;;
297;SDS011;133;49.626;9.680;2023-06-05T07:29:10;6.93;;;3.40;;
297;SDS011;133;49.626;9.680;2023-06-05T07:31:36;5.80;;;3.03;;
297;SDS011;133;49.626;9.680;2023-06-05T07:34:03;3.50;;;3.30;;
297;SDS011;133;49.626;9.680;2023-06-05T07:36:30;6.40;;;3.27;;
297;SDS011;133;49.626;9.680;2023-06-05T07:38:55;4.80;;;3.20;;
297;SDS011;133;49.626;9.680;2023-06-05T07:41:21;3.20;;;3.03;;
297;SDS011;133;49.626;9.680;2023-06-05T07:43:47;5.70;;;3.00;;
297;SDS011;133;49.626;9.680;2023-06-05T07:46:12;3.50;;;3.00;;
297;SDS011;133;49.626;9.680;2023-06-05T07:48:40;3.43;;;2.90;;
297;SDS011;133;49.626;9.680;2023-06-05T07:51:06;3.03;;;2.80;;
297;SDS011;133;49.626;9.680;2023-06-05T07:53:33;4.90;;;3.10;;
297;SDS011;133;49.626;9.680;2023-06-05T07:56:00;3.70;;;3.50;;
297;SDS011;133;49.626;9.680;2023-06-05T07:58:26;3.50;;;3.30;;
297;SDS011;133;49.626;9.680;2023-06-05T08:00:52;5.10;;;3.30;;
297;SDS011;133;49.626;9.680;2023-06-05T08:03:18;3.90;;;3.50;;
297;SDS011;133;49.626;9.680;2023-06-05T08:05:51;7.63;;;3.93;;
297;SDS011;133;49.626;9.680;2023-06-05T08:08:17;3.67;;;3.50;;
297;SDS011;133;49.626;9.680;2023-06-05T08:10:43;5.67;;;3.70;;
297;SDS011;133;49.626;9.680;2023-06-05T08:13:09;6.03;;;3.40;;
297;SDS011;133;49.626;9.680;2023-06-05T08:15:36;4.00;;;3.43;;
297;SDS011;133;49.626;9.680;2023-06-05T08:18:02;4.40;;;3.47;;
297;SDS011;133;49.626;9.680;2023-06-05T08:20:28;5.37;;;3.80;;
297;SDS011;133;49.626;9.680;2023-06-05T08:22:56;5.17;;;3.70;;
297;SDS011;133;49.626;9.680;2023-06-05T08:25:22;5.10;;;3.87;;
297;SDS011;133;49.626;9.680;2023-06-05T08:27:49;4.73;;;3.60;;
297;SDS011;133;49.626;9.680;2023-06-05T08:30:15;3.80;;;3.60;;
297;SDS011;133;49.626;9.680;2023-06-05T08:32:41;5.53;;;3.83;;
297;SDS011;133;49.626;9.680;2023-06-05T08:35:08;5.90;;;3.73;;
297;SDS011;133;49.626;9.680;2023-06-05T08:37:34;6.60;;;3.73;;
297;SDS011;133;49.626;9.680;2023-06-05T08:40:01;5.90;;;3.70;;
297;SDS011;133;49.626;9.680;2023-06-05T08:42:31;3.83;;;3.63;;
297;SDS011;133;49.626;9.680;2023-06-05T08:44:57;4.10;;;3.53;;
297;SDS011;133;49.626;9.680;2023-06-05T08:47:23;4.70;;;3.63;;
297;SDS011;133;49.626;9.680;2023-06-05T08:49:53;4.00;;;3.30;;
297;SDS011;133;49.626;9.680;2023-06-05T08:52:20;4.80;;;4.00;;
297;SDS011;133;49.626;9.680;2023-06-05T08:54:48;3.63;;;3.43;;
297;SDS011;133;49.626;9.680;2023-06-05T08:57:15;4.07;;;3.30;;
297;SDS011;133;49.626;9.680;2023-06-05T08:59:41;3.90;;;2.90;;
297;SDS011;133;49.626;9.680;2023-06-05T09:02:08;3.93;;;3.00;;
297;SDS011;133;49.626;9.680;2023-06-05T09:04:35;3.00;;;2.80;;
297;SDS011;133;49.626;9.680;2023-06-05T09:07:03;3.00;;;2.80;;
297;SDS011;133;49.626;9.680;2023-06-05T09:09:29;3.50;;;3.20;;
297;SDS011;133;49.626;9.680;2023-06-05T09:12:02;3.85;;;3.65;;
297;SDS011;133;49.626;9.680;2023-06-05T09:14:31;3.20;;;3.05;;
297;SDS011;133;49.626;9.680;2023-06-05T09:17:01;3.58;;;3.08;;
297;SDS011;133;49.626;9.680;2023-06-05T09:19:37;2.88;;;2.70;;
297;SDS011;133;49.626;9.680;2023-06-05T09:22:05;2.58;;;2.38;;
297;SDS011;133;49.626;9.680;2023-06-05T09:24:31;2.80;;;2.60;;
297;SDS011;133;49.626;9.680;2023-06-05T09:27:01;4.25;;;2.90;;
297;SDS011;133;49.626;9.680;2023-06-05T09:29:32;2.60;;;2.40;;
297;SDS011;133;49.626;9.680;2023-06-05T09:32:00;2.80;;;2.60;;
297;SDS011;133;49.626;9.680;2023-06-05T09:36:58;3.58;;;2.60;;
297;SDS011;133;49.626;9.680;2023-06-05T09:39:25;2.63;;;2.42;;
297;SDS011;133;49.626;9.680;2023-06-05T09:41:55;2.53;;;2.33;;
297;SDS011;133;49.626;9.680;2023-06-05T09:44:22;3.00;;;2.80;;
297;SDS011;133;49.626;9.680;2023-06-05T09:46:50;5.20;;;3.55;;
297;SDS011;133;49.626;9.680;2023-06-05T09:49:27;2.80;;;2.60;;
297;SDS011;133;49.626;9.680;2023-06-05T09:51:58;2.95;;;2.70;;
297;SDS011;133;49.626;9.680;2023-06-05T09:54:25;4.05;;;3.00;;
297;SDS011;133;49.626;9.680;2023-06-05T09:59:40;2.70;;;2.50;;
297;SDS011;133;49.626;9.680;2023-06-05T10:02:19;3.20;;;3.00;;
297;SDS011;133;49.626;9.680;2023-06-05T10:04:57;3.30;;;2.90;;
297;SDS011;133;49.626;9.680;2023-06-05T10:07:24;2.85;;;2.60;;
297;SDS011;133;49.626;9.680;2023-06-05T10:09:51;3.75;;;2.85;;
297;SDS011;133;49.626;9.680;2023-06-05T10:12:17;2.85;;;2.65;;
297;SDS011;133;49.626;9.680;2023-06-05T10:14:44;2.92;;;2.72;;
297;SDS011;133;49.626;9.680;2023-06-05T10:17:20;3.38;;;2.83;;
297;SDS011;133;49.626;9.680;2023-06-05T10:19:47;3.17;;;2.90;;
297;SDS011;133;49.626;9.680;2023-06-05T10:22:13;3.13;;;2.95;;
297;SDS011;133;49.626;9.680;2023-06-05T10:24:45;3.53;;;2.92;;
297;SDS011;133;49.626;9.680;2023-06-05T10:30:19;2.95;;;2.75;;
297;SDS011;133;49.626;9.680;2023-06-05T10:35:51;3.10;;;2.90;;
297;SDS011;133;49.626;9.680;2023-06-05T10:38:26;3.10;;;2.90;;
297;SDS011;133;49.626;9.680;2023-06-05T10:40:57;4.57;;;2.88;;
297;SDS011;133;49.626;9.680;2023-06-05T10:43:32;4.03;;;3.17;;
297;SDS011;133;49.626;9.680;2023-06-05T10:49:09;8.32;;;3.22;;
297;SDS011;133;49.626;9.680;2023-06-05T10:51:45;4.47;;;3.40;;
297;SDS011;133;49.626;9.680;2023-06-05T10:56:53;5.80;;;2.85;;
297;SDS011;133;49.626;9.680;2023-06-05T11:07:24;3.22;;;2.38;;
297;SDS011;133;49.626;9.680;2023-06-05T11:15:08;3.92;;;3.47;;
297;SDS011;133;49.626;9.680;2023-06-05T11:17:35;2.97;;;2.77;;
297;SDS011;133;49.626;9.680;2023-06-05T11:20:06;3.30;;;2.70;;
297;SDS011;133;49.626;9.680;2023-06-05T11:25:26;3.30;;;3.10;;
297;SDS011;133;49.626;9.680;2023-06-05T11:27:58;3.10;;;3.00;;
297;SDS011;133;49.626;9.680;2023-06-05T11:30:31;3.38;;;2.70;;
297;SDS011;133;49.626;9.680;2023-06-05T11:33:07;3.33;;;3.13;;
297;SDS011;133;49.626;9.680;2023-06-05T11:35:41;3.38;;;3.17;;
297;SDS011;133;49.626;9.680;2023-06-05T11:38:28;3.55;;;2.90;;
297;SDS011;133;49.626;9.680;2023-06-05T11:40:54;3.10;;;2.90;;
297;SDS011;133;49.626;9.680;2023-06-05T11:43:21;2.90;;;2.70;;
297;SDS011;133;49.626;9.680;2023-06-05T11:45:51;2.90;;;2.70;;
297;SDS011;133;49.626;9.680;2023-06-05T11:48:21;3.78;;;2.80;;
297;SDS011;133;49.626;9.680;2023-06-05T11:50:57;4.15;;;3.50;;
297;SDS011;133;49.626;9.680;2023-06-05T11:53:25;4.50;;;3.00;;
297;SDS011;133;49.626;9.680;2023-06-05T11:55:52;3.53;;;3.20;;
297;SDS011;133;49.626;9.680;2023-06-05T11:58:30;2.72;;;2.50;;
297;SDS011;133;49.626;9.680;2023-06-05T12:01:08;3.13;;;2.92;;
297;SDS011;133;49.626;9.680;2023-06-05T12:04:06;3.38;;;3.00;;
297;SDS011;133;49.626;9.680;2023-06-05T12:06:33;3.27;;;3.07;;
297;SDS011;133;49.626;9.680;2023-06-05T12:09:13;3.28;;;3.08;;
297;SDS011;133;49.626;9.680;2023-06-05T12:11:41;3.10;;;2.90;;
297;SDS011;133;49.626;9.680;2023-06-05T12:14:10;5.20;;;3.00;;
297;SDS011;133;49.626;9.680;2023-06-05T12:16:37;3.05;;;2.85;;
297;SDS011;133;49.626;9.680;2023-06-05T12:19:15;6.05;;;3.20;;
297;SDS011;133;49.626;9.680;2023-06-05T12:21:44;3.75;;;3.28;;
297;SDS011;133;49.626;9.680;2023-06-05T12:24:12;3.13;;;2.88;;
297;SDS011;133;49.626;9.680;2023-06-05T12:26:53;4.55;;;3.33;;
297;SDS011;133;49.626;9.680;2023-06-05T12:29:29;3.97;;;3.78;;
297;SDS011;133;49.626;9.680;2023-06-05T12:31:56;9.45;;;3.10;;
297;SDS011;133;49.626;9.680;2023-06-05T12:34:40;3.30;;;3.10;;
297;SDS011;133;49.626;9.680;2023-06-05T12:37:11;3.33;;;3.13;;
297;SDS011;133;49.626;9.680;2023-06-05T12:40:00;4.90;;;2.95;;
297;SDS011;133;49.626;9.680;2023-06-05T12:42:32;4.43;;;3.38;;
297;SDS011;133;49.626;9.680;2023-06-05T12:45:01;3.88;;;3.10;;
297;SDS011;133;49.626;9.680;2023-06-05T12:47:28;3.20;;;3.00;;
297;SDS011;133;49.626;9.680;2023-06-05T12:49:54;3.10;;;2.90;;
297;SDS011;133;49.626;9.680;2023-06-05T12:52:21;3.30;;;3.10;;
297;SDS011;133;49.626;9.680;2023-06-05T12:54:51;3.42;;;2.70;;
297;SDS011;133;49.626;9.680;2023-06-05T12:57:17;3.65;;;3.15;;
297;SDS011;133;49.626;9.680;2023-06-05T12:59:46;3.05;;;2.85;;
297;SDS011;133;49.626;9.680;2023-06-05T13:02:12;4.22;;;3.03;;
297;SDS011;133;49.626;9.680;2023-06-05T13:04:43;5.05;;;3.42;;
297;SDS011;133;49.626;9.680;2023-06-05T13:07:09;3.23;;;3.03;;
297;SDS011;133;49.626;9.680;2023-06-05T13:09:37;4.93;;;3.17;;
297;SDS011;133;49.626;9.680;2023-06-05T13:12:04;3.40;;;3.20;;
297;SDS011;133;49.626;9.680;2023-06-05T13:14:33;6.30;;;3.63;;
297;SDS011;133;49.626;9.680;2023-06-05T13:16:59;6.30;;;3.70;;
297;SDS011;133;49.626;9.680;2023-06-05T13:19:25;3.60;;;3.40;;
297;SDS011;133;49.626;9.680;2023-06-05T13:21:51;4.70;;;4.10;;
297;SDS011;133;49.626;9.680;2023-06-05T13:24:20;3.60;;;3.40;;
297;SDS011;133;49.626;9.680;2023-06-05T13:26:46;4.87;;;3.63;;
297;SDS011;133;49.626;9.680;2023-06-05T13:29:14;3.70;;;3.50;;
297;SDS011;133;49.626;9.680;2023-06-05T13:31:40;3.80;;;3.33;;
297;SDS011;133;49.626;9.680;2023-06-05T13:34:06;3.83;;;3.63;;
297;SDS011;133;49.626;9.680;2023-06-05T13:36:32;7.80;;;4.03;;
297;SDS011;133;49.626;9.680;2023-06-05T13:38:58;4.00;;;3.70;;
297;SDS011;133;49.626;9.680;2023-06-05T13:41:24;3.97;;;3.80;;
297;SDS011;133;49.626;9.680;2023-06-05T13:43:50;4.10;;;3.90;;
297;SDS011;133;49.626;9.680;2023-06-05T13:46:16;3.90;;;3.70;;
297;SDS011;133;49.626;9.680;2023-06-05T13:48:41;4.07;;;3.87;;
297;SDS011;133;49.626;9.680;2023-06-05T13:51:07;6.73;;;3.97;;
297;SDS011;133;49.626;9.680;2023-06-05T13:53:33;3.97;;;3.77;;
297;SDS011;133;49.626;9.680;2023-06-05T13:56:02;3.80;;;3.60;;
297;SDS011;133;49.626;9.680;2023-06-05T13:58:28;4.90;;;4.60;;
297;SDS011;133;49.626;9.680;2023-06-05T14:00:55;3.70;;;3.50;;
297;SDS011;133;49.626;9.680;2023-06-05T14:03:21;3.77;;;3.43;;
297;SDS011;133;49.626;9.680;2023-06-05T14:05:46;4.77;;;3.93;;
297;SDS011;133;49.626;9.680;2023-06-05T14:08:12;7.27;;;4.10;;
297;SDS011;133;49.626;9.680;2023-06-05T14:10:38;3.97;;;3.77;;
297;SDS011;133;49.626;9.680;2023-06-05T14:13:04;4.47;;;4.17;;
297;SDS011;133;49.626;9.680;2023-06-05T14:15:30;6.37;;;4.40;;
297;SDS011;133;49.626;9.680;2023-06-05T14:18:00;3.70;;;3.50;;
297;SDS011;133;49.626;9.680;2023-06-05T14:20:28;5.23;;;3.67;;
297;SDS011;133;49.626;9.680;2023-06-05T14:22:55;3.50;;;3.30;;
297;SDS011;133;49.626;9.680;2023-06-05T14:25:21;4.10;;;3.60;;
297;SDS011;133;49.626;9.680;2023-06-05T14:27:49;3.70;;;3.50;;
297;SDS011;133;49.626;9.680;2023-06-05T14:30:15;5.97;;;3.83;;
297;SDS011;133;49.626;9.680;2023-06-05T14:32:41;6.20;;;4.20;;
297;SDS011;133;49.626;9.680;2023-06-05T14:35:07;4.10;;;3.90;;
297;SDS011;133;49.626;9.680;2023-06-05T14:37:33;4.40;;;4.10;;
297;SDS011;133;49.626;9.680;2023-06-05T14:39:58;3.90;;;3.70;;
297;SDS011;133;49.626;9.680;2023-06-05T14:42:24;4.00;;;3.80;;
297;SDS011;133;49.626;9.680;2023-06-05T14:44:50;4.43;;;4.13;;
297;SDS011;133;49.626;9.680;2023-06-05T14:47:15;5.43;;;4.40;;
297;SDS011;133;49.626;9.680;2023-06-05T14:49:41;4.90;;;4.60;;
297;SDS011;133;49.626;9.680;2023-06-05T14:52:07;5.80;;;4.13;;
297;SDS011;133;49.626;9.680;2023-06-05T14:54:33;4.50;;;4.10;;
297;SDS011;133;49.626;9.680;2023-06-05T14:56:58;4.13;;;3.90;;
297;SDS011;133;49.626;9.680;2023-06-05T14:59:24;4.40;;;4.10;;
297;SDS011;133;49.626;9.680;2023-06-05T15:01:50;5.50;;;4.40;;
297;SDS011;133;49.626;9.680;2023-06-05T15:04:16;7.77;;;4.13;;
297;SDS011;133;49.626;9.680;2023-06-05T15:06:41;7.93;;;3.70;;
297;SDS011;133;49.626;9.680;2023-06-05T15:09:07;4.70;;;3.90;;
297;SDS011;133;49.626;9.680;2023-06-05T15:11:33;4.03;;;3.87;;
297;SDS011;133;49.626;9.680;2023-06-05T15:13:59;6.20;;;4.40;;
297;SDS011;133;49.626;9.680;2023-06-05T15:16:25;4.30;;;4.00;;
297;SDS011;133;49.626;9.680;2023-06-05T15:18:51;9.40;;;4.03;;
297;SDS011;133;49.626;9.680;2023-06-05T15:21:17;8.87;;;4.10;;
297;SDS011;133;49.626;9.680;2023-06-05T15:23:43;4.10;;;3.90;;
297;SDS011;133;49.626;9.680;2023-06-05T15:26:09;4.07;;;3.87;;
297;SDS011;133;49.626;9.680;2023-06-05T15:28:34;3.80;;;3.60;;
297;SDS011;133;49.626;9.680;2023-06-05T15:31:00;4.83;;;4.50;;
297;SDS011;133;49.626;9.680;2023-06-05T15:33:25;4.43;;;4.13;;
297;SDS011;133;49.626;9.680;2023-06-05T15:35:51;6.20;;;4.90;;
297;SDS011;133;49.626;9.680;2023-06-05T15:38:17;7.63;;;5.00;;
297;SDS011;133;49.626;9.680;2023-06-05T15:40:43;5.20;;;4.53;;
297;SDS011;133;49.626;9.680;2023-06-05T15:43:09;4.77;;;4.47;;
297;SDS011;133;49.626;9.680;2023-06-05T15:45:38;4.60;;;4.20;;
297;SDS011;133;49.626;9.680;2023-06-05T15:48:05;4.90;;;4.60;;
297;SDS011;133;49.626;9.680;2023-06-05T15:50:31;5.20;;;4.60;;
297;SDS011;133;49.626;9.680;2023-06-05T15:53:00;6.77;;;4.80;;
297;SDS011;133;49.626;9.680;2023-06-05T15:55:25;4.80;;;4.50;;
297;SDS011;133;49.626;9.680;2023-06-05T15:57:51;4.77;;;4.43;;
297;SDS011;133;49.626;9.680;2023-06-05T16:00:18;6.07;;;4.77;;
297;SDS011;133;49.626;9.680;2023-06-05T16:02:44;8.80;;;4.67;;
297;SDS011;133;49.626;9.680;2023-06-05T16:05:10;5.00;;;4.70;;
297;SDS011;133;49.626;9.680;2023-06-05T16:07:37;6.03;;;4.90;;
297;SDS011;133;49.626;9.680;2023-06-05T16:10:03;4.80;;;4.50;;
297;SDS011;133;49.626;9.680;2023-06-05T16:12:29;9.33;;;4.83;;
297;SDS011;133;49.626;9.680;2023-06-05T16:14:55;5.37;;;4.67;;
297;SDS011;133;49.626;9.680;2023-06-05T16:17:20;5.33;;;5.03;;
297;SDS011;133;49.626;9.680;2023-06-05T16:19:46;7.47;;;4.80;;
297;SDS011;133;49.626;9.680;2023-06-05T16:22:13;5.20;;;4.90;;
297;SDS011;133;49.626;9.680;2023-06-05T16:24:41;4.70;;;4.40;;